sensor_id;sensor_type;location;lat;lon;timestamp;temperature;humidity
12901;DHT22;6518;50.930;5.344;2022-10-16T00:00:37;15.30;99.90
12901;DHT22;6518;50.930;5.344;2022-10-16T00:03:04;15.30;99.90
12901;DHT22;6518;50.930;5.344;2022-10-16T00:05:31;15.30;99.90
12901;DHT22;6518;50.930;5.344;2022-10-16T00:07:58;15.30;99.90
12901;DHT22;6518;50.930;5.344;2022-10-16T00:10:25;15.30;99.90
12901;DHT22;6518;50.930;5.344;2022-10-16T00:12:53;15.30;99.90
12901;DHT22;6518;50.930;5.344;2022-10-16T00:15:20;15.20;99.90
12901;DHT22;6518;50.930;5.344;2022-10-16T00:17:47;15.20;99.90
12901;DHT22;6518;50.930;5.344;2022-10-16T00:20:13;15.30;99.90
12901;DHT22;6518;50.930;5.344;2022-10-16T00:22:40;15.20;99.90
12901;DHT22;6518;50.930;5.344;2022-10-16T00:25:07;15.20;99.90
12901;DHT22;6518;50.930;5.344;2022-10-16T00:27:34;15.20;99.90
12901;DHT22;6518;50.930;5.344;2022-10-16T00:30:03;15.20;99.90
12901;DHT22;6518;50.930;5.344;2022-10-16T00:32:31;15.20;99.90
12901;DHT22;6518;50.930;5.344;2022-10-16T00:34:57;15.20;99.90
12901;DHT22;6518;50.930;5.344;2022-10-16T00:37:24;15.20;99.90
12901;DHT22;6518;50.930;5.344;2022-10-16T00:39:51;15.20;99.90
12901;DHT22;6518;50.930;5.344;2022-10-16T00:42:18;15.20;99.90
12901;DHT22;6518;50.930;5.344;2022-10-16T00:44:48;15.20;99.90
12901;DHT22;6518;50.930;5.344;2022-10-16T00:47:22;15.20;99.90
12901;DHT22;6518;50.930;5.344;2022-10-16T00:49:55;15.10;99.90
12901;DHT22;6518;50.930;5.344;2022-10-16T00:52:22;15.10;99.90
12901;DHT22;6518;50.930;5.344;2022-10-16T00:54:50;15.20;99.90
12901;DHT22;6518;50.930;5.344;2022-10-16T00:57:17;15.20;99.90
12901;DHT22;6518;50.930;5.344;2022-10-16T00:59:43;15.10;99.90
12901;DHT22;6518;50.930;5.344;2022-10-16T01:02:13;15.10;99.90
12901;DHT22;6518;50.930;5.344;2022-10-16T01:04:44;15.10;99.90
12901;DHT22;6518;50.930;5.344;2022-10-16T01:07:16;15.10;99.90
12901;DHT22;6518;50.930;5.344;2022-10-16T01:09:55;15.10;99.90
12901;DHT22;6518;50.930;5.344;2022-10-16T01:12:32;15.10;99.90
12901;DHT22;6518;50.930;5.344;2022-10-16T01:15:08;15.00;99.90
12901;DHT22;6518;50.930;5.344;2022-10-16T01:17:41;15.10;99.90
12901;DHT22;6518;50.930;5.344;2022-10-16T01:20:17;15.00;99.90
12901;DHT22;6518;50.930;5.344;2022-10-16T01:23:12;15.00;99.90
12901;DHT22;6518;50.930;5.344;2022-10-16T01:25:54;15.00;99.90
12901;DHT22;6518;50.930;5.344;2022-10-16T01:28:27;15.00;99.90
12901;DHT22;6518;50.930;5.344;2022-10-16T01:30:58;14.90;99.90
12901;DHT22;6518;50.930;5.344;2022-10-16T01:33:30;14.90;99.90
12901;DHT22;6518;50.930;5.344;2022-10-16T01:36:02;15.00;99.90
12901;DHT22;6518;50.930;5.344;2022-10-16T01:38:35;14.90;99.90
12901;DHT22;6518;50.930;5.344;2022-10-16T01:41:07;14.90;99.90
12901;DHT22;6518;50.930;5.344;2022-10-16T01:43:37;14.90;99.90
12901;DHT22;6518;50.930;5.344;2022-10-16T01:46:05;14.90;99.90
12901;DHT22;6518;50.930;5.344;2022-10-16T01:48:34;14.90;99.90
12901;DHT22;6518;50.930;5.344;2022-10-16T01:51:04;14.90;99.90
12901;DHT22;6518;50.930;5.344;2022-10-16T01:53:32;14.90;99.90
12901;DHT22;6518;50.930;5.344;2022-10-16T01:56:00;14.90;99.90
12901;DHT22;6518;50.930;5.344;2022-10-16T01:58:30;14.90;99.90
12901;DHT22;6518;50.930;5.344;2022-10-16T02:01:02;14.90;99.90
12901;DHT22;6518;50.930;5.344;2022-10-16T02:03:29;14.80;99.90
12901;DHT22;6518;50.930;5.344;2022-10-16T02:05:57;14.90;99.90
12901;DHT22;6518;50.930;5.344;2022-10-16T02:08:27;14.80;99.90
12901;DHT22;6518;50.930;5.344;2022-10-16T02:10:55;14.90;99.90
12901;DHT22;6518;50.930;5.344;2022-10-16T02:13:25;14.90;99.90
12901;DHT22;6518;50.930;5.344;2022-10-16T02:15:54;14.90;99.90
12901;DHT22;6518;50.930;5.344;2022-10-16T02:18:22;14.80;99.90
12901;DHT22;6518;50.930;5.344;2022-10-16T02:20:55;14.80;99.90
12901;DHT22;6518;50.930;5.344;2022-10-16T02:23:30;14.90;99.90
12901;DHT22;6518;50.930;5.344;2022-10-16T02:25:59;14.90;99.90
12901;DHT22;6518;50.930;5.344;2022-10-16T02:28:32;14.90;99.90
12901;DHT22;6518;50.930;5.344;2022-10-16T02:31:03;14.80;99.90
12901;DHT22;6518;50.930;5.344;2022-10-16T02:33:33;14.80;99.90
12901;DHT22;6518;50.930;5.344;2022-10-16T02:36:02;14.80;99.90
12901;DHT22;6518;50.930;5.344;2022-10-16T02:38:30;14.90;99.90
12901;DHT22;6518;50.930;5.344;2022-10-16T02:40:57;14.80;99.90
12901;DHT22;6518;50.930;5.344;2022-10-16T02:43:25;14.90;99.90
12901;DHT22;6518;50.930;5.344;2022-10-16T02:45:52;14.80;99.90
12901;DHT22;6518;50.930;5.344;2022-10-16T02:48:19;14.80;99.90
12901;DHT22;6518;50.930;5.344;2022-10-16T02:50:47;14.80;99.90
12901;DHT22;6518;50.930;5.344;2022-10-16T02:53:13;14.80;99.90
12901;DHT22;6518;50.930;5.344;2022-10-16T02:55:40;14.80;99.90
12901;DHT22;6518;50.930;5.344;2022-10-16T02:58:07;14.80;99.90
12901;DHT22;6518;50.930;5.344;2022-10-16T03:00:34;14.80;99.90
12901;DHT22;6518;50.930;5.344;2022-10-16T03:03:01;14.80;99.90
12901;DHT22;6518;50.930;5.344;2022-10-16T03:05:28;14.80;99.90
12901;DHT22;6518;50.930;5.344;2022-10-16T03:07:56;14.80;99.90
12901;DHT22;6518;50.930;5.344;2022-10-16T03:10:25;14.80;99.90
12901;DHT22;6518;50.930;5.344;2022-10-16T03:12:52;14.80;99.90
12901;DHT22;6518;50.930;5.344;2022-10-16T03:15:19;14.80;99.90
12901;DHT22;6518;50.930;5.344;2022-10-16T03:17:45;14.70;99.90
12901;DHT22;6518;50.930;5.344;2022-10-16T03:20:12;14.70;99.90
12901;DHT22;6518;50.930;5.344;2022-10-16T03:22:39;14.70;99.90
12901;DHT22;6518;50.930;5.344;2022-10-16T03:25:08;14.70;99.90
12901;DHT22;6518;50.930;5.344;2022-10-16T03:27:34;14.70;99.90
12901;DHT22;6518;50.930;5.344;2022-10-16T03:30:02;14.70;99.90
12901;DHT22;6518;50.930;5.344;2022-10-16T03:32:28;14.70;99.90
12901;DHT22;6518;50.930;5.344;2022-10-16T03:34:55;14.70;99.90
12901;DHT22;6518;50.930;5.344;2022-10-16T03:37:22;14.70;99.90
12901;DHT22;6518;50.930;5.344;2022-10-16T03:39:49;14.70;99.90
12901;DHT22;6518;50.930;5.344;2022-10-16T03:42:17;14.70;99.90
12901;DHT22;6518;50.930;5.344;2022-10-16T03:44:44;14.70;99.90
12901;DHT22;6518;50.930;5.344;2022-10-16T03:47:11;14.70;99.90
12901;DHT22;6518;50.930;5.344;2022-10-16T03:49:38;14.70;99.90
12901;DHT22;6518;50.930;5.344;2022-10-16T03:52:04;14.70;99.90
12901;DHT22;6518;50.930;5.344;2022-10-16T03:54:31;14.70;99.90
12901;DHT22;6518;50.930;5.344;2022-10-16T03:56:58;14.70;99.90
12901;DHT22;6518;50.930;5.344;2022-10-16T03:59:26;14.60;99.90
12901;DHT22;6518;50.930;5.344;2022-10-16T04:01:53;14.70;99.90
12901;DHT22;6518;50.930;5.344;2022-10-16T04:04:20;14.70;99.90
12901;DHT22;6518;50.930;5.344;2022-10-16T04:06:46;14.60;99.90
12901;DHT22;6518;50.930;5.344;2022-10-16T04:09:13;14.60;99.90
12901;DHT22;6518;50.930;5.344;2022-10-16T04:11:40;14.60;99.90
12901;DHT22;6518;50.930;5.344;2022-10-16T04:14:07;14.60;99.90
12901;DHT22;6518;50.930;5.344;2022-10-16T04:16:35;14.60;99.90
12901;DHT22;6518;50.930;5.344;2022-10-16T04:19:02;14.60;99.90
12901;DHT22;6518;50.930;5.344;2022-10-16T04:21:29;14.60;99.90
12901;DHT22;6518;50.930;5.344;2022-10-16T04:23:55;14.60;99.90
12901;DHT22;6518;50.930;5.344;2022-10-16T04:26:22;14.60;99.90
12901;DHT22;6518;50.930;5.344;2022-10-16T04:28:49;14.60;99.90
12901;DHT22;6518;50.930;5.344;2022-10-16T04:31:16;14.60;99.90
12901;DHT22;6518;50.930;5.344;2022-10-16T04:33:44;14.60;99.90
12901;DHT22;6518;50.930;5.344;2022-10-16T04:36:11;14.60;99.90
12901;DHT22;6518;50.930;5.344;2022-10-16T04:38:38;14.50;99.90
12901;DHT22;6518;50.930;5.344;2022-10-16T04:41:06;14.50;99.90
12901;DHT22;6518;50.930;5.344;2022-10-16T04:43:33;14.50;99.90
12901;DHT22;6518;50.930;5.344;2022-10-16T04:46:00;14.50;99.90
12901;DHT22;6518;50.930;5.344;2022-10-16T04:48:27;14.50;99.90
12901;DHT22;6518;50.930;5.344;2022-10-16T04:50:55;14.50;99.90
12901;DHT22;6518;50.930;5.344;2022-10-16T04:53:22;14.50;99.90
12901;DHT22;6518;50.930;5.344;2022-10-16T04:55:49;14.50;99.90
12901;DHT22;6518;50.930;5.344;2022-10-16T04:58:16;14.50;99.90
12901;DHT22;6518;50.930;5.344;2022-10-16T05:00:44;14.50;99.90
12901;DHT22;6518;50.930;5.344;2022-10-16T05:03:11;14.50;99.90
12901;DHT22;6518;50.930;5.344;2022-10-16T05:05:42;14.50;99.90
12901;DHT22;6518;50.930;5.344;2022-10-16T05:08:11;14.50;99.90
12901;DHT22;6518;50.930;5.344;2022-10-16T05:10:38;14.50;99.90
12901;DHT22;6518;50.930;5.344;2022-10-16T05:13:05;14.50;99.90
12901;DHT22;6518;50.930;5.344;2022-10-16T05:15:31;14.50;99.90
12901;DHT22;6518;50.930;5.344;2022-10-16T05:17:58;14.50;99.90
12901;DHT22;6518;50.930;5.344;2022-10-16T05:20:25;14.50;99.90
12901;DHT22;6518;50.930;5.344;2022-10-16T05:22:52;14.50;99.90
12901;DHT22;6518;50.930;5.344;2022-10-16T05:25:20;14.50;99.90
12901;DHT22;6518;50.930;5.344;2022-10-16T05:27:47;14.50;99.90
12901;DHT22;6518;50.930;5.344;2022-10-16T05:30:15;14.50;99.90
12901;DHT22;6518;50.930;5.344;2022-10-16T05:32:46;14.50;99.90
12901;DHT22;6518;50.930;5.344;2022-10-16T05:35:13;14.50;99.90
12901;DHT22;6518;50.930;5.344;2022-10-16T05:37:40;14.40;99.90
12901;DHT22;6518;50.930;5.344;2022-10-16T05:40:08;14.40;99.90
12901;DHT22;6518;50.930;5.344;2022-10-16T05:42:36;14.40;99.90
12901;DHT22;6518;50.930;5.344;2022-10-16T05:45:03;14.40;99.90
12901;DHT22;6518;50.930;5.344;2022-10-16T05:47:31;14.40;99.90
12901;DHT22;6518;50.930;5.344;2022-10-16T05:49:57;14.50;99.90
12901;DHT22;6518;50.930;5.344;2022-10-16T05:52:24;14.40;99.90
12901;DHT22;6518;50.930;5.344;2022-10-16T05:54:51;14.40;99.90
12901;DHT22;6518;50.930;5.344;2022-10-16T05:57:18;14.40;99.90
12901;DHT22;6518;50.930;5.344;2022-10-16T05:59:46;14.40;99.90
12901;DHT22;6518;50.930;5.344;2022-10-16T06:02:13;14.40;99.90
12901;DHT22;6518;50.930;5.344;2022-10-16T06:04:40;14.30;99.90
12901;DHT22;6518;50.930;5.344;2022-10-16T06:07:07;14.30;99.90
12901;DHT22;6518;50.930;5.344;2022-10-16T06:09:34;14.30;99.90
12901;DHT22;6518;50.930;5.344;2022-10-16T06:12:01;14.30;99.90
12901;DHT22;6518;50.930;5.344;2022-10-16T06:14:27;14.30;99.90
12901;DHT22;6518;50.930;5.344;2022-10-16T06:16:56;14.30;99.90
12901;DHT22;6518;50.930;5.344;2022-10-16T06:19:22;14.30;99.90
12901;DHT22;6518;50.930;5.344;2022-10-16T06:21:49;14.30;99.90
12901;DHT22;6518;50.930;5.344;2022-10-16T06:24:16;14.30;99.90
12901;DHT22;6518;50.930;5.344;2022-10-16T06:26:43;14.30;99.90
12901;DHT22;6518;50.930;5.344;2022-10-16T06:29:10;14.30;99.90
12901;DHT22;6518;50.930;5.344;2022-10-16T06:31:36;14.30;99.90
12901;DHT22;6518;50.930;5.344;2022-10-16T06:34:05;14.30;99.90
12901;DHT22;6518;50.930;5.344;2022-10-16T06:36:35;14.30;99.90
12901;DHT22;6518;50.930;5.344;2022-10-16T06:39:02;14.30;99.90
12901;DHT22;6518;50.930;5.344;2022-10-16T06:41:28;14.30;99.90
12901;DHT22;6518;50.930;5.344;2022-10-16T06:43:55;14.30;99.90
12901;DHT22;6518;50.930;5.344;2022-10-16T06:46:23;14.40;99.90
12901;DHT22;6518;50.930;5.344;2022-10-16T06:48:50;14.40;99.90
12901;DHT22;6518;50.930;5.344;2022-10-16T06:51:23;14.40;99.90
12901;DHT22;6518;50.930;5.344;2022-10-16T06:53:52;14.40;99.90
12901;DHT22;6518;50.930;5.344;2022-10-16T06:56:21;14.40;99.90
12901;DHT22;6518;50.930;5.344;2022-10-16T06:58:49;14.40;99.90
12901;DHT22;6518;50.930;5.344;2022-10-16T07:01:18;14.40;99.90
12901;DHT22;6518;50.930;5.344;2022-10-16T07:03:46;14.50;99.90
12901;DHT22;6518;50.930;5.344;2022-10-16T07:06:14;14.50;99.90
12901;DHT22;6518;50.930;5.344;2022-10-16T07:08:44;14.50;99.90
12901;DHT22;6518;50.930;5.344;2022-10-16T07:11:12;14.60;99.90
12901;DHT22;6518;50.930;5.344;2022-10-16T07:13:41;14.60;99.90
12901;DHT22;6518;50.930;5.344;2022-10-16T07:16:10;14.70;99.90
12901;DHT22;6518;50.930;5.344;2022-10-16T07:18:37;14.70;99.90
12901;DHT22;6518;50.930;5.344;2022-10-16T07:21:07;14.80;99.90
12901;DHT22;6518;50.930;5.344;2022-10-16T07:23:34;14.80;99.90
12901;DHT22;6518;50.930;5.344;2022-10-16T07:26:03;14.80;99.90
12901;DHT22;6518;50.930;5.344;2022-10-16T07:28:30;14.90;99.90
12901;DHT22;6518;50.930;5.344;2022-10-16T07:31:00;15.00;99.90
12901;DHT22;6518;50.930;5.344;2022-10-16T07:33:27;15.00;99.90
12901;DHT22;6518;50.930;5.344;2022-10-16T07:35:55;15.00;99.90
12901;DHT22;6518;50.930;5.344;2022-10-16T07:38:22;15.10;99.90
12901;DHT22;6518;50.930;5.344;2022-10-16T07:40:56;15.20;99.90
12901;DHT22;6518;50.930;5.344;2022-10-16T07:43:26;15.20;99.90
12901;DHT22;6518;50.930;5.344;2022-10-16T07:45:53;15.20;99.90
12901;DHT22;6518;50.930;5.344;2022-10-16T07:48:21;15.30;99.90
12901;DHT22;6518;50.930;5.344;2022-10-16T07:50:48;15.40;99.90
12901;DHT22;6518;50.930;5.344;2022-10-16T07:53:15;15.40;99.90
12901;DHT22;6518;50.930;5.344;2022-10-16T07:55:42;15.40;99.90
12901;DHT22;6518;50.930;5.344;2022-10-16T07:58:09;15.50;99.90
12901;DHT22;6518;50.930;5.344;2022-10-16T08:00:37;15.50;99.90
12901;DHT22;6518;50.930;5.344;2022-10-16T08:03:04;15.60;99.90
12901;DHT22;6518;50.930;5.344;2022-10-16T08:05:32;15.60;99.90
12901;DHT22;6518;50.930;5.344;2022-10-16T08:08:00;15.70;99.90
12901;DHT22;6518;50.930;5.344;2022-10-16T08:10:28;15.80;99.90
12901;DHT22;6518;50.930;5.344;2022-10-16T08:12:57;15.80;99.90
12901;DHT22;6518;50.930;5.344;2022-10-16T08:15:24;15.90;99.90
12901;DHT22;6518;50.930;5.344;2022-10-16T08:17:57;15.90;99.90
12901;DHT22;6518;50.930;5.344;2022-10-16T08:20:24;16.00;99.90
12901;DHT22;6518;50.930;5.344;2022-10-16T08:22:51;16.00;99.90
12901;DHT22;6518;50.930;5.344;2022-10-16T08:25:18;16.10;99.90
12901;DHT22;6518;50.930;5.344;2022-10-16T08:27:45;16.10;99.90
12901;DHT22;6518;50.930;5.344;2022-10-16T08:30:12;16.10;99.90
12901;DHT22;6518;50.930;5.344;2022-10-16T08:32:39;16.20;99.90
12901;DHT22;6518;50.930;5.344;2022-10-16T08:35:08;16.20;99.90
12901;DHT22;6518;50.930;5.344;2022-10-16T08:37:35;16.30;99.90
12901;DHT22;6518;50.930;5.344;2022-10-16T08:40:03;16.30;99.90
12901;DHT22;6518;50.930;5.344;2022-10-16T08:42:39;16.40;99.90
12901;DHT22;6518;50.930;5.344;2022-10-16T08:45:20;16.40;99.90
12901;DHT22;6518;50.930;5.344;2022-10-16T08:47:54;16.50;99.90
12901;DHT22;6518;50.930;5.344;2022-10-16T08:50:27;16.50;99.90
12901;DHT22;6518;50.930;5.344;2022-10-16T08:52:55;16.50;99.90
12901;DHT22;6518;50.930;5.344;2022-10-16T08:55:31;16.60;99.90
12901;DHT22;6518;50.930;5.344;2022-10-16T08:58:00;16.60;99.90
12901;DHT22;6518;50.930;5.344;2022-10-16T09:00:27;16.60;99.90
12901;DHT22;6518;50.930;5.344;2022-10-16T09:03:03;16.70;99.90
12901;DHT22;6518;50.930;5.344;2022-10-16T09:06:19;16.70;99.90
12901;DHT22;6518;50.930;5.344;2022-10-16T09:08:58;16.80;99.90
12901;DHT22;6518;50.930;5.344;2022-10-16T09:11:38;16.80;99.90
12901;DHT22;6518;50.930;5.344;2022-10-16T09:14:19;16.90;99.90
12901;DHT22;6518;50.930;5.344;2022-10-16T09:16:54;16.90;99.90
12901;DHT22;6518;50.930;5.344;2022-10-16T09:19:27;16.90;99.90
12901;DHT22;6518;50.930;5.344;2022-10-16T09:21:59;17.00;99.90
12901;DHT22;6518;50.930;5.344;2022-10-16T09:24:30;17.00;99.90
12901;DHT22;6518;50.930;5.344;2022-10-16T09:26:56;17.00;99.90
12901;DHT22;6518;50.930;5.344;2022-10-16T09:29:23;17.10;99.60
12901;DHT22;6518;50.930;5.344;2022-10-16T09:31:51;17.10;99.00
12901;DHT22;6518;50.930;5.344;2022-10-16T09:34:25;17.20;99.20
12901;DHT22;6518;50.930;5.344;2022-10-16T09:36:58;17.20;98.60
12901;DHT22;6518;50.930;5.344;2022-10-16T09:39:26;17.30;98.10
12901;DHT22;6518;50.930;5.344;2022-10-16T09:41:53;17.40;97.50
12901;DHT22;6518;50.930;5.344;2022-10-16T09:44:24;17.40;96.90
12901;DHT22;6518;50.930;5.344;2022-10-16T09:47:01;17.50;96.50
12901;DHT22;6518;50.930;5.344;2022-10-16T09:49:27;17.50;95.90
12901;DHT22;6518;50.930;5.344;2022-10-16T09:52:04;17.60;95.00
12901;DHT22;6518;50.930;5.344;2022-10-16T09:54:32;17.60;94.50
12901;DHT22;6518;50.930;5.344;2022-10-16T09:57:06;17.70;93.60
12901;DHT22;6518;50.930;5.344;2022-10-16T09:59:33;17.70;93.30
12901;DHT22;6518;50.930;5.344;2022-10-16T10:02:03;17.70;94.10
12901;DHT22;6518;50.930;5.344;2022-10-16T10:04:40;17.80;93.30
12901;DHT22;6518;50.930;5.344;2022-10-16T10:07:17;17.80;92.70
12901;DHT22;6518;50.930;5.344;2022-10-16T10:09:45;17.80;91.80
12901;DHT22;6518;50.930;5.344;2022-10-16T10:12:21;17.90;91.80
12901;DHT22;6518;50.930;5.344;2022-10-16T10:14:49;17.90;90.40
12901;DHT22;6518;50.930;5.344;2022-10-16T10:17:19;17.90;90.70
12901;DHT22;6518;50.930;5.344;2022-10-16T10:19:51;17.90;89.80
12901;DHT22;6518;50.930;5.344;2022-10-16T10:22:31;17.90;89.40
12901;DHT22;6518;50.930;5.344;2022-10-16T10:25:22;18.00;90.20
12901;DHT22;6518;50.930;5.344;2022-10-16T10:30:55;18.20;89.40
12901;DHT22;6518;50.930;5.344;2022-10-16T10:33:28;18.30;89.00
12901;DHT22;6518;50.930;5.344;2022-10-16T10:36:02;18.30;87.60
12901;DHT22;6518;50.930;5.344;2022-10-16T10:38:39;18.40;87.20
12901;DHT22;6518;50.930;5.344;2022-10-16T10:41:27;18.40;85.60
12901;DHT22;6518;50.930;5.344;2022-10-16T10:44:03;18.30;83.60
12901;DHT22;6518;50.930;5.344;2022-10-16T10:46:36;18.30;83.80
12901;DHT22;6518;50.930;5.344;2022-10-16T10:49:24;18.30;84.20
12901;DHT22;6518;50.930;5.344;2022-10-16T10:52:02;18.30;83.90
12901;DHT22;6518;50.930;5.344;2022-10-16T10:54:39;18.30;84.20
12901;DHT22;6518;50.930;5.344;2022-10-16T10:57:12;18.40;84.10
12901;DHT22;6518;50.930;5.344;2022-10-16T10:59:53;18.50;83.80
12901;DHT22;6518;50.930;5.344;2022-10-16T11:02:25;18.40;83.10
12901;DHT22;6518;50.930;5.344;2022-10-16T11:05:21;18.40;82.40
12901;DHT22;6518;50.930;5.344;2022-10-16T11:07:54;18.30;81.30
12901;DHT22;6518;50.930;5.344;2022-10-16T11:10:25;18.30;81.70
12901;DHT22;6518;50.930;5.344;2022-10-16T11:12:57;18.30;81.40
12901;DHT22;6518;50.930;5.344;2022-10-16T11:15:28;18.40;80.90
12901;DHT22;6518;50.930;5.344;2022-10-16T11:17:59;18.40;80.90
12901;DHT22;6518;50.930;5.344;2022-10-16T11:20:29;18.50;80.70
12901;DHT22;6518;50.930;5.344;2022-10-16T11:23:01;18.50;81.30
12901;DHT22;6518;50.930;5.344;2022-10-16T11:25:33;18.60;80.20
12901;DHT22;6518;50.930;5.344;2022-10-16T11:28:03;18.60;79.90
12901;DHT22;6518;50.930;5.344;2022-10-16T11:30:43;18.60;79.80
12901;DHT22;6518;50.930;5.344;2022-10-16T11:33:25;18.60;79.40
12901;DHT22;6518;50.930;5.344;2022-10-16T11:36:00;18.60;78.70
12901;DHT22;6518;50.930;5.344;2022-10-16T11:38:32;18.70;78.80
12901;DHT22;6518;50.930;5.344;2022-10-16T11:41:06;18.70;78.60
12901;DHT22;6518;50.930;5.344;2022-10-16T11:43:38;18.70;78.20
12901;DHT22;6518;50.930;5.344;2022-10-16T11:46:09;18.70;78.20
12901;DHT22;6518;50.930;5.344;2022-10-16T11:48:41;18.70;78.10
12901;DHT22;6518;50.930;5.344;2022-10-16T11:51:16;18.70;77.90
12901;DHT22;6518;50.930;5.344;2022-10-16T11:53:51;18.70;78.10
12901;DHT22;6518;50.930;5.344;2022-10-16T11:56:21;18.80;78.50
12901;DHT22;6518;50.930;5.344;2022-10-16T11:58:54;18.90;78.80
12901;DHT22;6518;50.930;5.344;2022-10-16T12:01:27;19.00;78.10
12901;DHT22;6518;50.930;5.344;2022-10-16T12:04:14;19.00;77.90
12901;DHT22;6518;50.930;5.344;2022-10-16T12:06:46;18.90;77.30
12901;DHT22;6518;50.930;5.344;2022-10-16T12:09:19;18.90;77.00
12901;DHT22;6518;50.930;5.344;2022-10-16T12:11:49;18.90;76.80
12901;DHT22;6518;50.930;5.344;2022-10-16T12:14:22;19.00;76.90
12901;DHT22;6518;50.930;5.344;2022-10-16T12:17:01;19.00;76.30
12901;DHT22;6518;50.930;5.344;2022-10-16T12:19:31;19.00;76.60
12901;DHT22;6518;50.930;5.344;2022-10-16T12:21:59;19.10;76.70
12901;DHT22;6518;50.930;5.344;2022-10-16T12:24:32;19.10;76.20
12901;DHT22;6518;50.930;5.344;2022-10-16T12:27:01;19.10;76.00
12901;DHT22;6518;50.930;5.344;2022-10-16T12:29:33;19.10;75.80
12901;DHT22;6518;50.930;5.344;2022-10-16T12:32:02;19.10;75.40
12901;DHT22;6518;50.930;5.344;2022-10-16T12:34:36;19.20;75.20
12901;DHT22;6518;50.930;5.344;2022-10-16T12:37:14;19.30;75.20
12901;DHT22;6518;50.930;5.344;2022-10-16T12:39:41;19.40;75.10
12901;DHT22;6518;50.930;5.344;2022-10-16T12:42:31;19.60;75.10
12901;DHT22;6518;50.930;5.344;2022-10-16T12:44:59;19.70;73.90
12901;DHT22;6518;50.930;5.344;2022-10-16T12:47:46;19.70;74.10
12901;DHT22;6518;50.930;5.344;2022-10-16T12:50:28;19.70;74.30
12901;DHT22;6518;50.930;5.344;2022-10-16T12:52:57;19.60;73.00
12901;DHT22;6518;50.930;5.344;2022-10-16T12:55:24;19.60;73.10
12901;DHT22;6518;50.930;5.344;2022-10-16T12:58:16;19.60;72.90
12901;DHT22;6518;50.930;5.344;2022-10-16T13:00:46;19.60;72.70
12901;DHT22;6518;50.930;5.344;2022-10-16T13:03:38;19.60;73.60
12901;DHT22;6518;50.930;5.344;2022-10-16T13:06:17;19.60;72.80
12901;DHT22;6518;50.930;5.344;2022-10-16T13:09:13;19.60;72.80
12901;DHT22;6518;50.930;5.344;2022-10-16T13:11:54;19.50;72.50
12901;DHT22;6518;50.930;5.344;2022-10-16T13:17:24;19.50;72.70
12901;DHT22;6518;50.930;5.344;2022-10-16T13:20:00;19.50;72.70
12901;DHT22;6518;50.930;5.344;2022-10-16T13:22:32;19.60;72.50
12901;DHT22;6518;50.930;5.344;2022-10-16T13:25:17;19.50;72.20
12901;DHT22;6518;50.930;5.344;2022-10-16T13:27:49;19.50;72.00
12901;DHT22;6518;50.930;5.344;2022-10-16T13:30:22;19.50;72.20
12901;DHT22;6518;50.930;5.344;2022-10-16T13:32:53;19.50;72.70
12901;DHT22;6518;50.930;5.344;2022-10-16T13:35:26;19.40;72.00
12901;DHT22;6518;50.930;5.344;2022-10-16T13:38:04;19.40;72.00
12901;DHT22;6518;50.930;5.344;2022-10-16T13:40:31;19.40;71.90
12901;DHT22;6518;50.930;5.344;2022-10-16T13:43:00;19.40;71.90
12901;DHT22;6518;50.930;5.344;2022-10-16T13:45:28;19.40;72.10
12901;DHT22;6518;50.930;5.344;2022-10-16T13:48:03;19.40;72.10
12901;DHT22;6518;50.930;5.344;2022-10-16T13:50:29;19.40;71.90
12901;DHT22;6518;50.930;5.344;2022-10-16T13:53:04;19.40;71.80
12901;DHT22;6518;50.930;5.344;2022-10-16T13:55:31;19.40;71.90
12901;DHT22;6518;50.930;5.344;2022-10-16T13:58:05;19.40;72.10
12901;DHT22;6518;50.930;5.344;2022-10-16T14:00:33;19.40;72.20
12901;DHT22;6518;50.930;5.344;2022-10-16T14:03:04;19.40;72.00
12901;DHT22;6518;50.930;5.344;2022-10-16T14:05:31;19.40;72.20
12901;DHT22;6518;50.930;5.344;2022-10-16T14:07:59;19.50;72.40
12901;DHT22;6518;50.930;5.344;2022-10-16T14:10:28;19.50;72.20
12901;DHT22;6518;50.930;5.344;2022-10-16T14:13:01;19.60;72.00
12901;DHT22;6518;50.930;5.344;2022-10-16T14:15:30;19.60;71.90
12901;DHT22;6518;50.930;5.344;2022-10-16T14:17:59;19.60;72.00
12901;DHT22;6518;50.930;5.344;2022-10-16T14:20:28;19.60;71.60
12901;DHT22;6518;50.930;5.344;2022-10-16T14:22:59;19.60;71.40
12901;DHT22;6518;50.930;5.344;2022-10-16T14:25:29;19.60;71.30
12901;DHT22;6518;50.930;5.344;2022-10-16T14:27:58;19.70;71.20
12901;DHT22;6518;50.930;5.344;2022-10-16T14:30:25;19.60;70.80
12901;DHT22;6518;50.930;5.344;2022-10-16T14:32:56;19.60;71.00
12901;DHT22;6518;50.930;5.344;2022-10-16T14:35:27;19.60;71.00
12901;DHT22;6518;50.930;5.344;2022-10-16T14:37:55;19.60;71.00
12901;DHT22;6518;50.930;5.344;2022-10-16T14:40:24;19.60;70.60
12901;DHT22;6518;50.930;5.344;2022-10-16T14:42:52;19.50;70.80
12901;DHT22;6518;50.930;5.344;2022-10-16T14:45:20;19.60;71.00
12901;DHT22;6518;50.930;5.344;2022-10-16T14:47:50;19.50;70.80
12901;DHT22;6518;50.930;5.344;2022-10-16T14:50:17;19.50;70.50
12901;DHT22;6518;50.930;5.344;2022-10-16T14:52:45;19.50;70.60
12901;DHT22;6518;50.930;5.344;2022-10-16T14:55:12;19.50;70.50
12901;DHT22;6518;50.930;5.344;2022-10-16T14:57:40;19.50;70.60
12901;DHT22;6518;50.930;5.344;2022-10-16T15:00:15;19.50;70.40
12901;DHT22;6518;50.930;5.344;2022-10-16T15:02:42;19.50;70.40
12901;DHT22;6518;50.930;5.344;2022-10-16T15:05:16;19.50;70.50
12901;DHT22;6518;50.930;5.344;2022-10-16T15:07:45;19.50;70.40
12901;DHT22;6518;50.930;5.344;2022-10-16T15:10:12;19.50;70.40
12901;DHT22;6518;50.930;5.344;2022-10-16T15:12:40;19.50;70.50
12901;DHT22;6518;50.930;5.344;2022-10-16T15:15:25;19.50;70.50
12901;DHT22;6518;50.930;5.344;2022-10-16T15:17:56;19.50;70.30
12901;DHT22;6518;50.930;5.344;2022-10-16T15:20:23;19.50;70.40
12901;DHT22;6518;50.930;5.344;2022-10-16T15:22:51;19.50;70.50
12901;DHT22;6518;50.930;5.344;2022-10-16T15:25:31;19.50;70.60
12901;DHT22;6518;50.930;5.344;2022-10-16T15:27:59;19.50;70.30
12901;DHT22;6518;50.930;5.344;2022-10-16T15:30:27;19.50;70.60
12901;DHT22;6518;50.930;5.344;2022-10-16T15:32:54;19.40;70.50
12901;DHT22;6518;50.930;5.344;2022-10-16T15:35:21;19.40;70.70
12901;DHT22;6518;50.930;5.344;2022-10-16T15:37:48;19.40;71.50
12901;DHT22;6518;50.930;5.344;2022-10-16T15:40:17;19.40;70.70
12901;DHT22;6518;50.930;5.344;2022-10-16T15:42:44;19.40;70.90
12901;DHT22;6518;50.930;5.344;2022-10-16T15:45:11;19.30;71.10
12901;DHT22;6518;50.930;5.344;2022-10-16T15:47:38;19.30;71.00
12901;DHT22;6518;50.930;5.344;2022-10-16T15:50:06;19.30;71.30
12901;DHT22;6518;50.930;5.344;2022-10-16T15:52:33;19.30;71.50
12901;DHT22;6518;50.930;5.344;2022-10-16T15:55:00;19.20;71.70
12901;DHT22;6518;50.930;5.344;2022-10-16T15:57:29;19.20;71.70
12901;DHT22;6518;50.930;5.344;2022-10-16T15:59:56;19.20;71.90
12901;DHT22;6518;50.930;5.344;2022-10-16T16:02:22;19.20;72.20
12901;DHT22;6518;50.930;5.344;2022-10-16T16:04:49;19.10;72.20
12901;DHT22;6518;50.930;5.344;2022-10-16T16:07:17;19.10;72.20
12901;DHT22;6518;50.930;5.344;2022-10-16T16:09:44;19.10;72.30